Time;durP1;ratioP1;P1;durP2;ratioP2;P2;SDS_P1;SDS_P2;PMS_P1;PMS_P2;Temp;Humidity;BMP_temperature;BMP_pressure;BME280_temperature;BME280_humidity;BME280_pressure;Samples;Min_cycle;Max_cycle;Signal;HPM_P1;HPM_P2
2021/01/09 00:00:20;;;;;;;9.48;7.53;;;;;;;-0.10;72.11;96380.30;1701820;83;21984;-83
2021/01/09 00:02:48;;;;;;;12.00;7.22;;;;;;;-0.16;71.67;96388.44;1701053;83;21116;-83
2021/01/09 00:05:15;;;;;;;14.33;8.50;;;;;;;-0.22;71.51;96390.16;1702057;83;21479;-83
2021/01/09 00:07:41;;;;;;;11.35;7.78;;;;;;;-0.25;71.52;96389.11;1706723;83;21268;-82
2021/01/09 00:10:09;;;;;;;12.30;8.90;;;;;;;-0.26;71.46;96391.78;1699528;83;21251;-82
2021/01/09 00:12:35;;;;;;;15.25;10.13;;;;;;;-0.28;71.47;96390.63;1700095;83;21240;-82
2021/01/09 00:15:05;;;;;;;12.13;9.10;;;;;;;-0.27;71.36;96396.55;1705896;83;21156;-83
2021/01/09 00:17:31;;;;;;;12.82;8.55;;;;;;;-0.32;71.47;96395.16;1702067;83;21133;-83
2021/01/09 00:19:57;;;;;;;15.53;11.65;;;;;;;-0.29;71.56;96397.13;1710865;83;21635;-83
2021/01/09 00:22:24;;;;;;;13.10;10.43;;;;;;;-0.26;71.71;96396.42;1709564;83;21255;-83
2021/01/09 00:24:50;;;;;;;12.40;9.15;;;;;;;-0.28;71.53;96398.75;1702191;83;21428;-83
2021/01/09 00:27:16;;;;;;;8.90;7.35;;;;;;;-0.27;71.74;96399.91;1698406;83;21447;-83
2021/01/09 00:29:42;;;;;;;8.70;7.15;;;;;;;-0.26;71.91;96393.88;1707633;83;21145;-83
2021/01/09 00:32:08;;;;;;;54.67;41.83;;;;;;;-0.25;71.98;96392.94;1708804;82;21156;-83
2021/01/09 00:34:34;;;;;;;22.50;17.07;;;;;;;-0.28;71.55;96390.63;1719090;82;21136;-83
2021/01/09 00:37:00;;;;;;;22.87;17.30;;;;;;;-0.32;71.60;96393.06;1709752;82;21490;-83
2021/01/09 00:39:28;;;;;;;16.70;11.73;;;;;;;-0.30;71.75;96392.48;1710646;82;21120;-83
2021/01/09 00:41:54;;;;;;;12.28;8.70;;;;;;;-0.28;71.46;96393.64;1716498;81;22070;-84
2021/01/09 00:44:20;;;;;;;44.45;30.32;;;;;;;-0.33;71.30;96387.15;1684354;82;21196;-83
2021/01/09 00:46:46;;;;;;;30.50;24.63;;;;;;;-0.30;71.43;96392.48;1717022;82;21236;-84
2021/01/09 00:49:13;;;;;;;13.45;10.45;;;;;;;-0.28;71.43;96396.20;1719437;82;21367;-83
2021/01/09 00:51:39;;;;;;;9.18;8.23;;;;;;;-0.32;71.60;96393.06;1712777;82;21130;-83
2021/01/09 00:54:06;;;;;;;14.58;10.82;;;;;;;-0.32;71.95;96399.45;1712581;81;21125;-83
2021/01/09 00:56:32;;;;;;;9.90;8.25;;;;;;;-0.33;71.88;96404.17;1708796;82;21133;-83
2021/01/09 00:58:58;;;;;;;8.73;7.33;;;;;;;-0.31;72.36;96407.45;1715919;82;21313;-82
2021/01/09 01:01:24;;;;;;;10.23;6.55;;;;;;;-0.33;72.33;96399.07;1713457;82;21367;-83
2021/01/09 01:03:52;;;;;;;10.48;7.78;;;;;;;-0.28;72.37;96405.95;1711959;82;21233;-83
2021/01/09 01:06:25;;;;;;;11.95;8.93;;;;;;;-0.23;72.29;96410.23;1712548;82;21474;-83
2021/01/09 01:08:51;;;;;;;;;;;;;;;-0.19;72.18;96407.80;1687371;82;21128;-83
2021/01/09 01:11:29;;;;;;;25.40;14.80;;;;;;;-0.14;72.09;96412.12;1715248;81;20167;-82
2021/01/09 01:13:57;;;;;;;29.37;18.40;;;;;;;-0.10;71.98;96412.69;1715190;82;21124;-83
2021/01/09 01:16:23;;;;;;;17.75;10.55;;;;;;;-0.05;71.98;96408.04;1714657;82;21149;-83
2021/01/09 01:18:50;;;;;;;25.90;16.65;;;;;;;-0.03;71.87;96409.55;1715557;82;21133;-83
2021/01/09 01:21:16;;;;;;;29.40;18.75;;;;;;;-0.03;71.80;96415.93;1683850;82;21466;-83
2021/01/09 01:23:42;;;;;;;13.05;10.05;;;;;;;-0.04;71.94;96409.20;1713519;82;21132;-83
2021/01/09 01:26:09;;;;;;;11.90;8.30;;;;;;;0.00;71.77;96417.47;1713867;82;21289;-83
2021/01/09 01:28:35;;;;;;;11.38;8.30;;;;;;;0.01;71.91;96410.62;1709606;82;21102;-83
2021/01/09 01:31:02;;;;;;;8.50;7.10;;;;;;;0.04;71.83;96412.94;1719491;82;21129;-82
2021/01/09 01:33:28;;;;;;;9.43;8.10;;;;;;;0.02;71.79;96412.24;1712174;82;21133;-83
2021/01/09 01:35:55;;;;;;;10.65;8.55;;;;;;;-0.01;71.77;96414.07;1708839;83;21310;-83
2021/01/09 01:38:21;;;;;;;10.03;7.80;;;;;;;-0.01;71.88;96413.26;1708772;83;21133;-83
2021/01/09 01:40:48;;;;;;;8.93;7.28;;;;;;;-0.02;71.87;96411.17;1704508;83;21114;-83
2021/01/09 01:43:14;;;;;;;9.20;8.20;;;;;;;-0.04;71.68;96414.77;1702915;83;21106;-83
2021/01/09 01:45:41;;;;;;;11.38;7.87;;;;;;;-0.05;71.77;96411.41;1701315;83;21294;-83
2021/01/09 01:48:10;;;;;;;8.90;7.62;;;;;;;-0.09;71.95;96412.58;1705727;83;21146;-83
2021/01/09 01:50:39;;;;;;;11.48;8.43;;;;;;;-0.11;71.87;96409.79;1699961;83;21143;-83
2021/01/09 01:53:05;;;;;;;9.05;7.72;;;;;;;-0.18;71.92;96414.53;1705128;83;21161;-83
2021/01/09 01:55:31;;;;;;;8.70;7.00;;;;;;;-0.22;71.88;96418.24;1707086;83;21089;-83
2021/01/09 01:57:57;;;;;;;10.03;7.25;;;;;;;-0.25;72.11;96414.65;1707944;83;21106;-83
2021/01/09 02:00:30;;;;;;;10.40;6.90;;;;;;;-0.30;71.97;96412.91;1701409;83;21155;-83
2021/01/09 02:02:59;;;;;;;9.03;7.25;;;;;;;-0.36;72.15;96414.16;1704717;83;21270;-83
2021/01/09 02:05:30;;;;;;;9.98;8.80;;;;;;;-0.43;72.23;96410.45;1713194;83;21451;-84
2021/01/09 02:07:57;;;;;;;7.03;5.92;;;;;;;-0.48;72.38;96409.17;1704162;83;21135;-83
2021/01/09 02:10:24;;;;;;;7.47;5.75;;;;;;;-0.52;72.43;96410.30;1700721;83;21132;-83
2021/01/09 02:13:01;;;;;;;8.20;6.00;;;;;;;-0.61;72.52;96413.89;1703838;83;21154;-83
2021/01/09 02:15:27;;;;;;;7.90;6.45;;;;;;;-0.66;72.67;96412.11;1705678;83;21292;-83
2021/01/09 02:17:53;;;;;;;7.12;6.40;;;;;;;-0.66;72.93;96415.94;1711491;83;21359;-83
2021/01/09 02:20:19;;;;;;;6.50;5.35;;;;;;;-0.66;72.98;96406.20;1702567;83;21129;-83
2021/01/09 02:22:46;;;;;;;7.87;7.00;;;;;;;-0.70;73.08;96409.44;1696554;83;21126;-83
2021/01/09 02:25:12;;;;;;;8.75;7.25;;;;;;;-0.73;73.20;96412.22;1710183;83;21271;-83
2021/01/09 02:27:38;;;;;;;8.35;5.87;;;;;;;-0.72;73.34;96408.75;1709051;83;21138;-83
2021/01/09 02:30:14;;;;;;;7.83;6.25;;;;;;;-0.68;73.47;96413.97;1697228;83;21521;-83
2021/01/09 02:32:51;;;;;;;8.85;7.60;;;;;;;-0.66;73.52;96405.73;1710483;82;21140;-83
2021/01/09 02:35:17;;;;;;;11.10;8.68;;;;;;;-0.63;73.61;96405.53;1718204;82;21097;-83
2021/01/09 02:37:43;;;;;;;9.80;8.03;;;;;;;-0.62;73.71;96409.72;1707387;82;21128;-83
2021/01/09 02:40:16;;;;;;;12.80;9.80;;;;;;;-0.63;73.81;96414.47;1713009;82;21145;-82
2021/01/09 02:42:42;;;;;;;9.98;8.08;;;;;;;-0.62;74.02;96408.90;1717463;82;21120;-83
2021/01/09 02:45:09;;;;;;;7.67;5.70;;;;;;;-0.61;74.01;96410.06;1680385;82;21161;-83
2021/01/09 02:47:35;;;;;;;7.55;5.95;;;;;;;-0.56;74.02;96411.45;1724606;82;21254;-83
2021/01/09 02:50:06;;;;;;;7.85;6.80;;;;;;;-0.54;74.10;96412.16;1717097;81;21156;-83
2021/01/09 02:52:32;;;;;;;11.75;7.87;;;;;;;-0.54;74.11;96414.70;1720862;82;21140;-83
2021/01/09 02:54:58;;;;;;;8.28;6.25;;;;;;;-0.50;74.17;96408.44;1714194;82;21089;-83
2021/01/09 02:57:24;;;;;;;8.48;6.03;;;;;;;-0.50;73.98;96405.89;1713646;82;21141;-83
2021/01/09 02:59:50;;;;;;;7.67;6.22;;;;;;;-0.47;73.99;96406.97;1681432;82;21133;-83
2021/01/09 03:02:16;;;;;;;7.83;6.08;;;;;;;-0.45;73.95;96417.88;1719753;82;21116;-83
2021/01/09 03:04:42;;;;;;;7.80;6.30;;;;;;;-0.42;73.99;96412.53;1718434;82;21156;-83
2021/01/09 03:07:08;;;;;;;6.47;5.85;;;;;;;-0.40;74.16;96415.78;1720791;82;21141;-83
2021/01/09 03:09:34;;;;;;;7.05;6.05;;;;;;;-0.37;73.99;96409.98;1687021;82;21136;-83
2021/01/09 03:12:01;;;;;;;7.08;6.22;;;;;;;-0.36;73.96;96414.16;1711244;82;21113;-83
2021/01/09 03:14:27;;;;;;;8.13;6.45;;;;;;;-0.36;73.91;96415.44;1709505;82;21133;-83
2021/01/09 03:16:53;;;;;;;10.20;8.20;;;;;;;-0.34;73.87;96419.15;1717793;82;21156;-82
2021/01/09 03:19:19;;;;;;;10.13;7.58;;;;;;;-0.32;73.88;96421.96;1708206;82;21145;-83
2021/01/09 03:21:45;;;;;;;7.17;6.33;;;;;;;-0.32;73.71;96419.88;1724079;82;21627;-83
2021/01/09 03:24:11;;;;;;;8.28;6.42;;;;;;;-0.32;73.76;96424.98;1726862;82;21235;-83
2021/01/09 03:26:38;;;;;;;7.35;5.70;;;;;;;-0.33;73.72;96419.49;1717225;82;21117;-83
2021/01/09 03:29:04;;;;;;;9.38;7.05;;;;;;;-0.35;73.67;96420.89;1713178;82;21112;-83
2021/01/09 03:31:30;;;;;;;8.60;6.30;;;;;;;-0.39;73.76;96423.33;1711271;82;21279;-83
2021/01/09 03:33:56;;;;;;;7.00;5.87;;;;;;;-0.41;73.75;96417.98;1700052;82;21161;-83
2021/01/09 03:36:22;;;;;;;9.08;6.87;;;;;;;-0.43;73.72;96424.48;1709145;83;21119;-83
2021/01/09 03:38:49;;;;;;;8.53;5.40;;;;;;;-0.46;73.71;96421.35;1704946;83;21974;-83
2021/01/09 03:41:15;;;;;;;7.85;6.03;;;;;;;-0.48;73.78;96420.66;1709759;83;21121;-82
2021/01/09 03:43:41;;;;;;;8.55;7.08;;;;;;;-0.48;73.71;96419.37;1683737;83;21271;-83
2021/01/09 03:46:07;;;;;;;7.12;6.30;;;;;;;-0.50;73.75;96420.73;1698484;83;21162;-83
2021/01/09 03:48:33;;;;;;;6.45;5.10;;;;;;;-0.50;73.83;96421.20;1702670;83;21118;-83
2021/01/09 03:50:59;;;;;;;6.83;6.10;;;;;;;-0.52;73.98;96414.13;1702384;83;21132;-83
2021/01/09 03:53:25;;;;;;;8.10;5.78;;;;;;;-0.54;73.89;96414.70;1709296;83;21113;-83
2021/01/09 03:55:52;;;;;;;8.88;6.78;;;;;;;-0.57;73.83;96414.47;1703195;83;21216;-83
2021/01/09 03:58:18;;;;;;;8.80;5.92;;;;;;;-0.56;73.92;96416.56;1706955;83;21106;-83
2021/01/09 04:00:44;;;;;;;6.62;5.80;;;;;;;-0.55;74.00;96416.91;1704346;83;21490;-83
2021/01/09 04:03:10;;;;;;;6.25;4.70;;;;;;;-0.51;74.04;96422.12;1712290;83;21165;-83
2021/01/09 04:05:36;;;;;;;7.30;6.45;;;;;;;-0.53;73.93;96421.44;1699410;83;21133;-83
2021/01/09 04:08:02;;;;;;;7.55;6.15;;;;;;;-0.53;73.96;96427.81;1705774;83;21149;-83
2021/01/09 04:10:28;;;;;;;7.70;6.45;;;;;;;-0.52;74.05;96428.98;1703888;83;21257;-83
2021/01/09 04:12:55;;;;;;;9.78;7.30;;;;;;;-0.51;74.02;96428.05;1701465;83;21352;-83
2021/01/09 04:15:21;;;;;;;8.83;6.90;;;;;;;-0.49;74.02;96428.77;1679460;83;21137;-83
2021/01/09 04:17:47;;;;;;;8.43;6.70;;;;;;;-0.45;73.99;96426.80;1700436;83;21279;-83
2021/01/09 04:20:14;;;;;;;9.18;7.35;;;;;;;-0.41;73.96;96434.12;1680246;83;21794;-83
2021/01/09 04:22:40;;;;;;;12.10;8.70;;;;;;;-0.36;73.97;96430.75;1696801;83;21154;-83
2021/01/09 04:25:07;;;;;;;13.43;9.05;;;;;;;-0.34;73.89;96431.45;1711155;83;21411;-83
2021/01/09 04:27:33;;;;;;;9.03;6.92;;;;;;;-0.32;73.87;96435.19;1705862;83;21276;-83
2021/01/09 04:30:00;;;;;;;9.10;6.85;;;;;;;-0.29;73.92;96432.41;1703406;83;21162;-83
2021/01/09 04:32:26;;;;;;;8.38;6.67;;;;;;;-0.29;73.90;96434.96;1696172;83;21125;-83
2021/01/09 04:34:52;;;;;;;11.20;7.20;;;;;;;-0.29;73.69;96432.88;1712285;82;21706;-83
2021/01/09 04:37:19;;;;;;;9.08;6.47;;;;;;;-0.29;73.87;96435.42;1715151;82;21263;-83
2021/01/09 04:39:45;;;;;;;7.97;6.35;;;;;;;-0.31;73.81;96440.19;1715555;82;21268;-83
2021/01/09 04:42:11;;;;;;;8.00;6.03;;;;;;;-0.32;73.84;96439.84;1685125;82;21227;-83
2021/01/09 04:44:37;;;;;;;7.85;6.28;;;;;;;-0.38;73.66;96442.82;1717937;82;21153;-82
2021/01/09 04:47:03;;;;;;;8.60;6.95;;;;;;;-0.41;73.69;96445.60;1722210;81;21140;-83
2021/01/09 04:49:30;;;;;;;7.35;6.10;;;;;;;-0.40;73.74;96447.23;1691167;82;21160;-82
2021/01/09 04:51:56;;;;;;;9.00;7.50;;;;;;;-0.41;73.90;96444.33;1719655;82;21404;-83
2021/01/09 04:54:24;;;;;;;8.23;6.67;;;;;;;-0.34;73.87;96449.78;1689187;82;21165;-83
2021/01/09 04:56:53;;;;;;;9.25;6.80;;;;;;;-0.29;73.97;96446.91;1721169;82;21333;-82
2021/01/09 04:59:20;;;;;;;8.58;6.37;;;;;;;-0.32;73.69;96453.88;1712539;82;21149;-83
2021/01/09 05:01:47;;;;;;;7.08;6.28;;;;;;;-0.33;73.91;96456.52;1718699;82;21140;-82
2021/01/09 05:04:14;;;;;;;9.65;6.92;;;;;;;-0.36;73.76;96452.45;1712588;82;21907;-82
2021/01/09 05:06:41;;;;;;;8.88;6.85;;;;;;;-0.25;73.91;96458.52;1713209;82;21409;-82
2021/01/09 05:09:09;;;;;;;10.23;7.65;;;;;;;-0.19;73.91;96467.00;1714731;81;21146;-82
2021/01/09 05:11:36;;;;;;;11.40;8.75;;;;;;;-0.14;73.89;96463.19;1680178;82;21158;-82
2021/01/09 05:14:04;;;;;;;9.85;7.70;;;;;;;-0.09;73.78;96467.95;1725572;82;21356;-82
2021/01/09 05:16:31;;;;;;;12.70;7.97;;;;;;;-0.09;73.79;96467.95;1711534;82;21363;-82
2021/01/09 05:18:57;;;;;;;9.95;7.65;;;;;;;-0.01;74.00;96470.73;1721179;81;21261;-82
2021/01/09 05:21:24;;;;;;;11.05;8.63;;;;;;;0.03;74.09;96474.71;1710422;82;21141;-82
2021/01/09 05:23:53;;;;;;;11.40;8.48;;;;;;;0.09;73.98;96474.70;1713661;82;21240;-83
2021/01/09 05:26:20;;;;;;;12.00;9.58;;;;;;;0.10;73.81;96473.78;1685451;82;21134;-83
2021/01/09 05:28:49;;;;;;;11.28;8.80;;;;;;;0.06;73.72;96477.03;1716283;82;21126;-82
2021/01/09 05:31:16;;;;;;;13.68;10.08;;;;;;;0.09;73.80;96483.65;1714112;82;21137;-82
2021/01/09 05:33:43;;;;;;;17.32;12.05;;;;;;;0.12;73.82;96483.41;1706149;82;21135;-82
2021/01/09 05:36:10;;;;;;;17.52;10.58;;;;;;;0.15;73.82;96483.18;1707239;83;21438;-82
2021/01/09 05:38:37;;;;;;;16.67;10.70;;;;;;;0.16;73.69;96486.08;1706093;83;21137;-82
2021/01/09 05:41:09;;;;;;;14.65;10.43;;;;;;;0.17;73.70;96485.19;1705445;83;21114;-82
2021/01/09 05:43:35;;;;;;;14.43;10.80;;;;;;;0.13;73.66;96493.52;1697895;83;21129;-82
2021/01/09 05:46:02;;;;;;;13.05;11.08;;;;;;;0.13;73.73;96497.81;1703728;83;21372;-83
2021/01/09 05:48:28;;;;;;;12.35;10.53;;;;;;;0.12;73.88;96502.11;1707595;83;21120;-82
2021/01/09 05:50:55;;;;;;;12.28;10.00;;;;;;;0.13;73.82;96501.19;1647019;86;21187;-82
2021/01/09 05:53:44;;;;;;;13.78;10.18;;;;;;;0.17;73.95;96508.18;1647824;86;21436;-83
2021/01/09 05:56:12;;;;;;;16.60;11.30;;;;;;;0.19;73.89;96512.70;1650981;86;21310;-82
2021/01/09 05:58:38;;;;;;;16.67;11.60;;;;;;;0.21;73.92;96512.13;1631437;86;21145;-82
2021/01/09 06:01:08;;;;;;;14.53;11.00;;;;;;;0.22;73.91;96518.40;1631318;86;21189;-82
2021/01/09 06:03:43;;;;;;;14.20;10.85;;;;;;;0.21;73.95;96519.80;1652378;86;21162;-82
2021/01/09 06:06:46;;;;;;;15.58;11.05;;;;;;;0.20;73.87;96516.42;1648452;86;21180;-82
2021/01/09 06:09:23;;;;;;;13.80;10.23;;;;;;;0.20;73.95;96527.11;1648736;86;21166;-82
2021/01/09 06:11:49;;;;;;;15.08;11.03;;;;;;;0.24;74.13;96526.77;1666681;85;21659;-82
2021/01/09 06:14:15;;;;;;;13.70;10.95;;;;;;;0.24;74.13;96526.77;1646138;86;21144;-83
2021/01/09 06:16:43;;;;;;;14.23;10.63;;;;;;;0.24;74.25;96536.17;1649116;86;21100;-82
2021/01/09 06:19:10;;;;;;;16.55;12.15;;;;;;;0.27;74.31;96535.94;1644879;86;21113;-82
2021/01/09 06:21:36;;;;;;;17.07;12.20;;;;;;;0.28;74.19;96534.54;1642385;86;21270;-82
2021/01/09 06:24:05;;;;;;;17.02;11.57;;;;;;;0.33;74.43;96533.41;1645921;86;21362;-82
2021/01/09 06:26:31;;;;;;;14.95;11.15;;;;;;;0.39;74.57;96540.60;1634579;86;21132;-82
2021/01/09 06:29:05;;;;;;;14.38;10.32;;;;;;;0.40;74.42;96545.59;1630301;86;21286;-83
2021/01/09 06:31:31;;;;;;;16.15;11.35;;;;;;;0.45;74.10;96550.36;1645012;86;21165;-83
2021/01/09 06:34:01;;;;;;;15.63;11.35;;;;;;;0.42;73.91;96546.76;1658422;84;21144;-82
2021/01/09 06:36:27;;;;;;;16.70;11.63;;;;;;;0.36;73.79;96554.43;1677200;84;21135;-82
2021/01/09 06:38:56;;;;;;;18.42;13.18;;;;;;;0.37;73.83;96565.47;1679542;84;21152;-82
2021/01/09 06:41:25;;;;;;;18.57;13.43;;;;;;;0.36;73.74;96565.13;1685274;84;21338;-83
2021/01/09 06:43:54;;;;;;;19.32;12.40;;;;;;;0.34;73.78;96572.91;1675868;84;21161;-82
2021/01/09 06:46:34;;;;;;;19.10;13.83;;;;;;;0.34;73.82;96572.91;1688142;84;21296;-82
2021/01/09 06:49:01;;;;;;;20.92;14.78;;;;;;;0.34;73.93;96576.74;1675569;84;21275;-83
2021/01/09 06:51:38;;;;;;;21.07;14.43;;;;;;;0.35;74.10;96575.81;1680415;84;21159;-82
2021/01/09 06:54:30;;;;;;;21.37;14.15;;;;;;;0.35;74.08;96580.92;1677167;84;21472;-82
2021/01/09 06:57:09;;;;;;;33.38;20.45;;;;;;;0.39;73.99;96573.84;1809786;77;22869;-82
2021/01/09 06:59:39;;;;;;;19.15;13.55;;;;;;;0.35;74.07;96580.92;1817598;78;21347;-82
2021/01/09 07:02:27;;;;;;;22.87;16.30;;;;;;;0.31;74.19;96585.89;1821579;78;21121;-81
2021/01/09 07:05:06;;;;;;;17.95;14.07;;;;;;;0.28;74.25;96583.09;1803028;78;21074;-82
2021/01/09 07:07:40;;;;;;;22.82;14.75;;;;;;;0.28;74.28;96583.56;1802479;78;21120;-82
2021/01/09 07:10:19;;;;;;;22.75;14.78;;;;;;;0.27;74.34;96583.22;1778978;80;21323;-81
2021/01/09 07:12:48;;;;;;;20.12;14.13;;;;;;;0.26;74.49;96583.68;1821430;78;21933;-81
2021/01/09 07:15:16;;;;;;;20.55;16.48;;;;;;;0.25;74.50;96584.61;1824270;78;21588;-82
2021/01/09 07:17:46;;;;;;;19.77;15.83;;;;;;;0.31;74.52;96593.55;1821490;78;21335;-82
2021/01/09 07:20:13;;;;;;;24.25;16.97;;;;;;;0.30;74.43;96596.58;1770977;80;21124;-82
2021/01/09 07:22:42;;;;;;;23.73;16.87;;;;;;;0.27;74.48;96593.44;1818478;78;21110;-82
2021/01/09 07:25:10;;;;;;;26.30;17.62;;;;;;;0.27;74.68;96596.80;1819545;78;21279;-84
2021/01/09 07:27:44;;;;;;;29.60;20.35;;;;;;;0.30;74.79;96605.52;1806839;78;21390;-84
2021/01/09 07:30:15;;;;;;;25.90;19.25;;;;;;;0.32;74.81;96607.96;1788260;78;21094;-84
2021/01/09 07:32:50;;;;;;;23.00;16.55;;;;;;;0.37;74.70;96612.30;1781938;78;21109;-84
2021/01/09 07:35:25;;;;;;;27.85;18.80;;;;;;;0.40;74.69;96618.45;1745741;81;21130;-84
2021/01/09 07:38:01;;;;;;;29.00;20.30;;;;;;;0.46;74.62;96617.17;1759801;81;21368;-84
2021/01/09 07:40:53;;;;;;;25.92;18.37;;;;;;;0.49;74.59;96619.53;1757890;81;21120;-83
2021/01/09 07:43:47;;;;;;;24.50;16.82;;;;;;;0.51;74.56;96622.78;1751947;81;21104;-83
2021/01/09 07:46:29;;;;;;;26.73;18.15;;;;;;;0.51;74.51;96624.87;1743424;81;21464;-83
2021/01/09 07:49:03;;;;;;;25.17;17.77;;;;;;;0.51;74.39;96629.17;1743035;81;21247;-83
2021/01/09 07:51:50;;;;;;;24.87;17.48;;;;;;;0.52;74.53;96631.61;1760045;81;21089;-83
2021/01/09 07:54:47;;;;;;;30.43;19.25;;;;;;;0.52;74.33;96627.78;1763411;81;21216;-83
2021/01/09 07:57:23;;;;;;;26.20;17.77;;;;;;;0.55;74.42;96631.38;1735824;81;21121;-83
2021/01/09 08:00:02;;;;;;;28.62;19.20;;;;;;;0.61;74.48;96632.66;1758505;80;21108;-83
2021/01/09 08:02:36;;;;;;;27.77;19.23;;;;;;;0.63;74.51;96629.98;1796968;79;21442;-83
2021/01/09 08:05:19;;;;;;;27.95;19.85;;;;;;;0.66;74.38;96631.87;1790573;78;21112;-83
2021/01/09 08:07:54;;;;;;;25.92;19.25;;;;;;;0.71;74.12;96639.19;1810579;78;21063;-83
2021/01/09 08:10:31;;;;;;;52.17;27.87;;;;;;;0.71;74.12;96639.19;1794700;78;21233;-82
2021/01/09 08:13:04;;;;;;;599.17;299.20;;;;;;;0.74;74.10;96635.94;1791047;78;21102;-83
2021/01/09 08:15:31;;;;;;;251.85;114.35;;;;;;;0.79;74.09;96640.23;1795217;78;21219;-83
2021/01/09 08:18:04;;;;;;;94.37;48.60;;;;;;;0.81;74.06;96637.55;1808788;79;21118;-83
2021/01/09 08:20:30;;;;;;;36.50;24.30;;;;;;;0.88;74.09;96640.83;1788028;79;21115;-83
2021/01/09 08:22:59;;;;;;;39.20;23.90;;;;;;;0.93;73.93;96649.44;1795785;78;21076;-85
2021/01/09 08:25:29;;;;;;;48.75;30.82;;;;;;;0.90;73.86;96646.64;1790245;78;21097;-82
2021/01/09 08:27:59;;;;;;;99.90;55.10;;;;;;;0.90;73.89;96649.20;1814555;79;21251;-82
2021/01/09 08:30:29;;;;;;;137.22;78.07;;;;;;;0.90;73.75;96653.51;1789925;78;21079;-82
2021/01/09 08:33:08;;;;;;;277.65;137.65;;;;;;;0.89;73.70;96653.97;1799277;79;21145;-82
2021/01/09 08:35:36;;;;;;;234.75;110.72;;;;;;;0.90;73.80;96658.16;1800373;79;21116;-82
2021/01/09 08:38:04;;;;;;;221.82;104.38;;;;;;;0.96;73.85;96656.06;1807579;78;21447;-82
2021/01/09 08:40:31;;;;;;;126.90;60.12;;;;;;;0.93;73.67;96655.83;1812507;78;21093;-82
2021/01/09 08:43:11;;;;;;;156.15;74.72;;;;;;;0.92;73.56;96656.77;1811985;78;21497;-82
2021/01/09 08:45:44;;;;;;;398.38;156.30;;;;;;;0.91;73.70;96656.41;1804991;79;21098;-82
2021/01/09 08:51:11;;;;;;;277.43;102.85;;;;;;;0.93;73.60;96655.83;1807466;78;22900;-83
2021/01/09 08:54:00;;;;;;;404.27;134.37;;;;;;;0.89;73.63;96662.11;1775103;79;21114;-83
2021/01/09 08:56:30;;;;;;;390.50;121.97;;;;;;;0.90;73.55;96659.44;1751888;80;21105;-82
2021/01/09 08:59:08;;;;;;;201.32;68.25;;;;;;;0.86;73.45;96659.33;1767555;79;21130;-81
2021/01/09 09:01:48;;;;;;;232.87;76.67;;;;;;;0.87;73.36;96666.53;1766664;80;21471;-81
2021/01/09 09:04:14;;;;;;;147.53;55.10;;;;;;;0.86;73.50;96663.63;1776536;79;21162;-82
2021/01/09 09:06:44;;;;;;;202.97;74.47;;;;;;;0.90;73.45;96670.95;1774541;80;21139;-81
2021/01/09 09:09:17;;;;;;;175.85;63.68;;;;;;;0.97;73.43;96671.30;1766548;79;21118;-81
2021/01/09 09:11:53;;;;;;;106.92;43.50;;;;;;;1.04;73.33;96671.66;1775157;79;21344;-81
2021/01/09 09:14:19;;;;;;;139.22;54.77;;;;;;;1.03;73.13;96667.02;1763975;79;21110;-81
2021/01/09 09:16:45;;;;;;;198.35;69.50;;;;;;;1.04;73.23;96667.83;1762713;80;21129;-84
2021/01/09 09:19:17;;;;;;;80.65;40.03;;;;;;;1.06;73.07;96662.13;1787261;80;21114;-84
2021/01/09 09:21:46;;;;;;;203.70;62.65;;;;;;;1.03;73.04;96662.36;1794087;80;21395;-84
2021/01/09 09:24:14;;;;;;;119.37;42.65;;;;;;;1.00;72.86;96667.25;1745454;81;21260;-83
2021/01/09 09:26:42;;;;;;;36.65;19.80;;;;;;;0.95;72.81;96657.80;1725650;82;21149;-84
2021/01/09 09:29:08;;;;;;;52.43;24.98;;;;;;;0.92;72.71;96661.06;1713927;83;21315;-85
2021/01/09 09:31:40;;;;;;;99.67;39.23;;;;;;;0.87;72.85;96660.14;1721526;83;21145;-84
2021/01/09 09:34:13;;;;;;;90.47;39.60;;;;;;;0.85;72.97;96656.42;1748490;81;21109;-84
2021/01/09 09:36:50;;;;;;;71.37;33.23;;;;;;;0.88;72.99;96654.09;1728034;82;21073;-84
2021/01/09 09:39:23;;;;;;;83.30;35.08;;;;;;;0.86;72.94;96656.77;1700334;83;21149;-84
2021/01/09 09:42:02;;;;;;;92.35;34.98;;;;;;;0.91;73.13;96660.25;1717254;82;21347;-84
2021/01/09 09:44:54;;;;;;;89.30;36.15;;;;;;;1.01;73.07;96661.20;1719472;82;21254;-83
2021/01/09 09:47:28;;;;;;;54.53;24.40;;;;;;;1.05;72.99;96662.59;1639495;86;21490;-82
2021/01/09 09:49:59;;;;;;;60.28;28.70;;;;;;;1.06;73.01;96668.05;1621663;87;21292;-82
2021/01/09 09:52:27;;;;;;;80.45;36.75;;;;;;;1.07;73.17;96660.72;1616380;87;21437;-82
2021/01/09 09:55:04;;;;;;;68.45;34.53;;;;;;;1.10;73.23;96665.60;1637353;86;21146;-83
2021/01/09 09:57:31;;;;;;;73.35;34.53;;;;;;;1.15;73.30;96663.53;1631539;86;21158;-83
2021/01/09 10:00:11;;;;;;;69.47;33.92;;;;;;;1.22;73.28;96669.45;1644296;86;21341;-83
2021/01/09 10:02:55;;;;;;;68.37;34.05;;;;;;;1.27;73.16;96672.00;1622553;86;21146;-81
2021/01/09 10:05:25;;;;;;;58.08;34.55;;;;;;;1.33;73.16;96669.45;1633152;86;21102;-81
2021/01/09 10:08:14;;;;;;;61.95;31.12;;;;;;;1.43;73.10;96663.95;1645683;86;21261;-81
2021/01/09 10:10:52;;;;;;;50.10;29.23;;;;;;;1.52;73.10;96658.14;1820373;76;22575;-81
2021/01/09 10:13:25;;;;;;;43.00;26.50;;;;;;;1.56;73.20;96661.27;1808396;78;21231;-81
2021/01/09 10:15:51;;;;;;;52.83;28.12;;;;;;;1.54;72.96;96664.42;1805905;78;21091;-82
2021/01/09 10:18:17;;;;;;;49.53;27.58;;;;;;;1.55;72.90;96655.34;1823089;78;21101;-82
2021/01/09 10:20:44;;;;;;;37.63;23.35;;;;;;;1.61;72.71;96658.69;1819776;78;21344;-82
2021/01/09 10:23:10;;;;;;;41.58;24.63;;;;;;;1.73;72.76;96661.58;1822472;78;21414;-82
2021/01/09 10:25:36;;;;;;;51.75;30.88;;;;;;;1.86;72.49;96655.03;1812048;78;21255;-82
2021/01/09 10:28:02;;;;;;;36.53;22.55;;;;;;;1.87;72.49;96656.66;1798786;78;21240;-82
2021/01/09 10:30:29;;;;;;;37.85;23.15;;;;;;;1.98;72.62;96652.78;1799901;78;21090;-83
2021/01/09 10:32:57;;;;;;;27.70;19.15;;;;;;;2.03;72.11;96643.44;1808417;78;21090;-81
2021/01/09 10:35:23;;;;;;;25.62;18.85;;;;;;;2.11;71.88;96648.75;1828500;78;21220;-81
2021/01/09 10:37:50;;;;;;;27.10;19.25;;;;;;;2.12;72.04;96646.56;1807873;78;21105;-83
2021/01/09 10:40:16;;;;;;;23.98;17.20;;;;;;;2.12;71.67;96641.91;1829115;78;21196;-81
2021/01/09 10:42:42;;;;;;;22.37;16.55;;;;;;;2.05;70.96;96645.41;1781465;80;21125;-82
2021/01/09 10:45:11;;;;;;;21.90;15.88;;;;;;;1.96;71.12;96649.53;1716913;82;21133;-83
2021/01/09 10:47:38;;;;;;;26.20;16.65;;;;;;;1.89;71.13;96650.13;1726477;81;21145;-82
2021/01/09 10:50:05;;;;;;;40.43;22.70;;;;;;;1.83;71.21;96655.28;1751064;81;21148;-82
2021/01/09 10:52:31;;;;;;;45.17;25.82;;;;;;;1.79;71.32;96653.43;1760577;81;21109;-82
2021/01/09 10:54:57;;;;;;;38.98;25.48;;;;;;;1.80;71.62;96655.06;1756610;81;21228;-81
2021/01/09 10:57:23;;;;;;;27.00;19.90;;;;;;;1.80;71.82;96641.44;1744975;81;21133;-82
2021/01/09 10:59:49;;;;;;;33.75;22.60;;;;;;;1.76;71.71;96646.43;1768040;81;21259;-82
2021/01/09 11:02:15;;;;;;;35.60;22.45;;;;;;;1.72;71.82;96651.45;1775439;81;21129;-82
2021/01/09 11:04:42;;;;;;;36.88;25.10;;;;;;;1.70;71.81;96649.48;1752649;81;21143;-82
2021/01/09 11:07:08;;;;;;;42.10;27.70;;;;;;;1.69;72.16;96646.58;1750729;81;21149;-81
2021/01/09 11:09:35;;;;;;;44.45;28.07;;;;;;;1.65;72.41;96648.58;1721113;82;21410;-81
2021/01/09 11:12:01;;;;;;;54.83;32.55;;;;;;;1.69;72.43;96652.52;1727477;81;21121;-81
2021/01/09 11:14:27;;;;;;;57.20;35.75;;;;;;;1.69;72.30;96648.67;1744099;81;21151;-80
2021/01/09 11:16:57;;;;;;;52.05;31.75;;;;;;;1.70;72.44;96654.14;1737444;81;21142;-81
2021/01/09 11:19:23;;;;;;;44.48;29.23;;;;;;;1.71;72.30;96648.55;1751718;81;21109;-82
2021/01/09 11:21:50;;;;;;;57.35;36.63;;;;;;;1.67;72.36;96656.14;1742246;81;21444;-82
2021/01/09 11:24:16;;;;;;;45.00;30.92;;;;;;;1.67;72.41;96656.14;1743720;81;21137;-80
2021/01/09 11:26:42;;;;;;;41.90;27.73;;;;;;;1.67;72.58;96658.23;1761251;81;21099;-81
2021/01/09 11:29:08;;;;;;;33.75;23.12;;;;;;;1.65;72.55;96660.09;1742934;81;21175;-81
2021/01/09 11:31:34;;;;;;;39.95;26.68;;;;;;;1.59;72.34;96657.19;1734214;81;21367;-81
2021/01/09 11:34:00;;;;;;;35.55;24.95;;;;;;;1.52;72.55;96661.98;1734138;81;21355;-81
2021/01/09 11:36:27;;;;;;;35.08;24.43;;;;;;;1.45;72.76;96655.22;1793530;78;21220;-81
2021/01/09 11:38:53;;;;;;;38.60;27.02;;;;;;;1.42;72.87;96662.33;1784138;79;21109;-81